sensor_id;sensor_type;location;lat;lon;timestamp;temperature;humidity
12634;DHT22;6382;48.614;8.880;2023-04-26T00:01:19;6.30;99.90
12634;DHT22;6382;48.614;8.880;2023-04-26T00:03:45;6.30;99.90
12634;DHT22;6382;48.614;8.880;2023-04-26T00:06:12;6.40;99.90
12634;DHT22;6382;48.614;8.880;2023-04-26T00:08:40;6.40;99.90
12634;DHT22;6382;48.614;8.880;2023-04-26T00:11:08;6.40;99.90
12634;DHT22;6382;48.614;8.880;2023-04-26T00:13:34;6.40;99.90
12634;DHT22;6382;48.614;8.880;2023-04-26T00:16:03;6.40;99.90
12634;DHT22;6382;48.614;8.880;2023-04-26T00:18:30;6.40;99.90
12634;DHT22;6382;48.614;8.880;2023-04-26T00:20:57;6.40;99.90
12634;DHT22;6382;48.614;8.880;2023-04-26T00:23:24;6.40;99.90
12634;DHT22;6382;48.614;8.880;2023-04-26T00:25:51;6.40;99.90
12634;DHT22;6382;48.614;8.880;2023-04-26T00:28:18;6.40;99.90
12634;DHT22;6382;48.614;8.880;2023-04-26T00:30:45;6.50;99.90
12634;DHT22;6382;48.614;8.880;2023-04-26T00:33:14;6.50;99.90
12634;DHT22;6382;48.614;8.880;2023-04-26T00:35:41;6.50;99.90
12634;DHT22;6382;48.614;8.880;2023-04-26T00:38:07;6.50;99.90
12634;DHT22;6382;48.614;8.880;2023-04-26T00:40:34;6.50;99.90
12634;DHT22;6382;48.614;8.880;2023-04-26T00:43:01;6.50;99.90
12634;DHT22;6382;48.614;8.880;2023-04-26T00:45:29;7.40;99.90
12634;DHT22;6382;48.614;8.880;2023-04-26T00:47:55;6.50;99.90
12634;DHT22;6382;48.614;8.880;2023-04-26T00:50:23;6.40;99.90
12634;DHT22;6382;48.614;8.880;2023-04-26T00:52:50;6.40;99.90
12634;DHT22;6382;48.614;8.880;2023-04-26T00:55:17;6.50;99.90
12634;DHT22;6382;48.614;8.880;2023-04-26T00:57:44;6.30;99.90
12634;DHT22;6382;48.614;8.880;2023-04-26T01:00:11;6.40;99.90
12634;DHT22;6382;48.614;8.880;2023-04-26T01:02:38;6.40;99.90
12634;DHT22;6382;48.614;8.880;2023-04-26T01:05:07;6.30;99.90
12634;DHT22;6382;48.614;8.880;2023-04-26T01:07:35;6.30;99.90
12634;DHT22;6382;48.614;8.880;2023-04-26T01:10:02;6.20;99.90
12634;DHT22;6382;48.614;8.880;2023-04-26T01:12:32;6.10;99.90
12634;DHT22;6382;48.614;8.880;2023-04-26T01:14:59;6.10;99.90
12634;DHT22;6382;48.614;8.880;2023-04-26T01:17:26;6.00;99.90
12634;DHT22;6382;48.614;8.880;2023-04-26T01:19:53;6.00;99.90
12634;DHT22;6382;48.614;8.880;2023-04-26T01:22:20;5.90;99.90
12634;DHT22;6382;48.614;8.880;2023-04-26T01:24:47;5.90;99.90
12634;DHT22;6382;48.614;8.880;2023-04-26T01:27:16;5.90;99.90
12634;DHT22;6382;48.614;8.880;2023-04-26T01:29:43;6.00;99.90
12634;DHT22;6382;48.614;8.880;2023-04-26T01:32:10;6.10;99.90
12634;DHT22;6382;48.614;8.880;2023-04-26T01:34:37;6.10;99.90
12634;DHT22;6382;48.614;8.880;2023-04-26T01:37:04;6.00;99.90
12634;DHT22;6382;48.614;8.880;2023-04-26T01:39:33;6.00;99.90
12634;DHT22;6382;48.614;8.880;2023-04-26T01:42:00;6.00;99.90
12634;DHT22;6382;48.614;8.880;2023-04-26T01:44:28;6.10;99.90
12634;DHT22;6382;48.614;8.880;2023-04-26T01:46:55;6.10;99.90
12634;DHT22;6382;48.614;8.880;2023-04-26T01:49:22;6.10;99.90
12634;DHT22;6382;48.614;8.880;2023-04-26T01:51:48;6.10;99.90
12634;DHT22;6382;48.614;8.880;2023-04-26T01:54:15;6.10;99.90
12634;DHT22;6382;48.614;8.880;2023-04-26T01:56:42;6.20;99.90
12634;DHT22;6382;48.614;8.880;2023-04-26T01:59:09;6.20;99.90
12634;DHT22;6382;48.614;8.880;2023-04-26T02:01:36;6.10;99.90
12634;DHT22;6382;48.614;8.880;2023-04-26T02:04:03;6.00;99.90
12634;DHT22;6382;48.614;8.880;2023-04-26T02:06:30;5.90;99.90
12634;DHT22;6382;48.614;8.880;2023-04-26T02:08:58;5.80;99.90
12634;DHT22;6382;48.614;8.880;2023-04-26T02:11:24;5.60;99.90
12634;DHT22;6382;48.614;8.880;2023-04-26T02:13:52;5.50;99.90
12634;DHT22;6382;48.614;8.880;2023-04-26T02:16:19;5.40;99.90
12634;DHT22;6382;48.614;8.880;2023-04-26T02:18:47;5.40;99.90
12634;DHT22;6382;48.614;8.880;2023-04-26T02:21:16;5.40;99.90
12634;DHT22;6382;48.614;8.880;2023-04-26T02:23:44;5.30;99.90
12634;DHT22;6382;48.614;8.880;2023-04-26T02:26:10;5.30;99.90
12634;DHT22;6382;48.614;8.880;2023-04-26T02:28:40;5.40;99.90
12634;DHT22;6382;48.614;8.880;2023-04-26T02:31:10;5.40;99.90
12634;DHT22;6382;48.614;8.880;2023-04-26T02:33:37;5.50;99.90
12634;DHT22;6382;48.614;8.880;2023-04-26T02:36:04;5.60;99.90
12634;DHT22;6382;48.614;8.880;2023-04-26T02:38:32;5.50;99.90
12634;DHT22;6382;48.614;8.880;2023-04-26T02:40:59;6.00;99.90
12634;DHT22;6382;48.614;8.880;2023-04-26T02:43:26;5.50;99.90
12634;DHT22;6382;48.614;8.880;2023-04-26T02:45:53;5.50;99.90
12634;DHT22;6382;48.614;8.880;2023-04-26T02:48:20;5.50;99.90
12634;DHT22;6382;48.614;8.880;2023-04-26T02:50:46;5.50;99.90
12634;DHT22;6382;48.614;8.880;2023-04-26T02:53:13;5.50;99.90
12634;DHT22;6382;48.614;8.880;2023-04-26T02:55:42;5.50;99.90
12634;DHT22;6382;48.614;8.880;2023-04-26T02:58:08;5.50;99.90
12634;DHT22;6382;48.614;8.880;2023-04-26T03:00:35;5.40;99.90
12634;DHT22;6382;48.614;8.880;2023-04-26T03:03:02;5.40;99.90
12634;DHT22;6382;48.614;8.880;2023-04-26T03:05:29;5.40;99.90
12634;DHT22;6382;48.614;8.880;2023-04-26T03:07:56;5.40;99.90
12634;DHT22;6382;48.614;8.880;2023-04-26T03:10:23;5.30;99.90
12634;DHT22;6382;48.614;8.880;2023-04-26T03:12:49;5.20;99.90
12634;DHT22;6382;48.614;8.880;2023-04-26T03:15:16;5.20;99.90
12634;DHT22;6382;48.614;8.880;2023-04-26T03:17:43;5.20;99.90
12634;DHT22;6382;48.614;8.880;2023-04-26T03:20:10;5.10;99.90
12634;DHT22;6382;48.614;8.880;2023-04-26T03:22:37;5.00;99.90
12634;DHT22;6382;48.614;8.880;2023-04-26T03:25:03;5.00;99.90
12634;DHT22;6382;48.614;8.880;2023-04-26T03:27:31;5.00;99.90
12634;DHT22;6382;48.614;8.880;2023-04-26T03:29:58;4.90;99.90
12634;DHT22;6382;48.614;8.880;2023-04-26T03:32:24;4.90;99.90
12634;DHT22;6382;48.614;8.880;2023-04-26T03:34:51;4.90;99.90
12634;DHT22;6382;48.614;8.880;2023-04-26T03:37:18;4.80;99.90
12634;DHT22;6382;48.614;8.880;2023-04-26T03:39:45;4.80;99.90
12634;DHT22;6382;48.614;8.880;2023-04-26T03:42:12;4.80;99.90
12634;DHT22;6382;48.614;8.880;2023-04-26T03:44:39;4.70;99.90
12634;DHT22;6382;48.614;8.880;2023-04-26T03:47:05;4.60;99.90
12634;DHT22;6382;48.614;8.880;2023-04-26T03:49:32;4.50;99.90
12634;DHT22;6382;48.614;8.880;2023-04-26T03:51:59;4.40;99.90
12634;DHT22;6382;48.614;8.880;2023-04-26T03:54:26;4.30;99.90
12634;DHT22;6382;48.614;8.880;2023-04-26T03:56:52;4.20;99.90
12634;DHT22;6382;48.614;8.880;2023-04-26T03:59:19;4.20;99.90
12634;DHT22;6382;48.614;8.880;2023-04-26T04:01:46;4.10;99.90
12634;DHT22;6382;48.614;8.880;2023-04-26T04:04:12;5.10;99.90
12634;DHT22;6382;48.614;8.880;2023-04-26T04:06:40;5.80;99.90
12634;DHT22;6382;48.614;8.880;2023-04-26T04:09:07;3.90;99.90
12634;DHT22;6382;48.614;8.880;2023-04-26T04:11:34;3.90;99.90
12634;DHT22;6382;48.614;8.880;2023-04-26T04:14:01;3.80;99.90
12634;DHT22;6382;48.614;8.880;2023-04-26T04:16:28;3.80;99.90
12634;DHT22;6382;48.614;8.880;2023-04-26T04:18:55;3.80;99.90
12634;DHT22;6382;48.614;8.880;2023-04-26T04:21:22;3.80;99.90
12634;DHT22;6382;48.614;8.880;2023-04-26T04:23:48;3.80;99.90
12634;DHT22;6382;48.614;8.880;2023-04-26T04:26:15;3.80;99.90
12634;DHT22;6382;48.614;8.880;2023-04-26T04:28:43;3.80;99.90
12634;DHT22;6382;48.614;8.880;2023-04-26T04:31:11;3.80;99.90
12634;DHT22;6382;48.614;8.880;2023-04-26T04:33:38;5.60;99.90
12634;DHT22;6382;48.614;8.880;2023-04-26T04:36:05;3.70;99.90
12634;DHT22;6382;48.614;8.880;2023-04-26T04:38:32;3.60;99.90
12634;DHT22;6382;48.614;8.880;2023-04-26T04:40:59;3.60;99.90
12634;DHT22;6382;48.614;8.880;2023-04-26T04:43:25;3.60;99.90
12634;DHT22;6382;48.614;8.880;2023-04-26T04:45:53;3.60;99.90
12634;DHT22;6382;48.614;8.880;2023-04-26T04:48:21;3.70;99.90
12634;DHT22;6382;48.614;8.880;2023-04-26T04:50:48;3.70;99.90
12634;DHT22;6382;48.614;8.880;2023-04-26T04:53:14;5.50;99.90
12634;DHT22;6382;48.614;8.880;2023-04-26T04:55:41;3.70;99.90
12634;DHT22;6382;48.614;8.880;2023-04-26T04:58:08;3.80;99.90
12634;DHT22;6382;48.614;8.880;2023-04-26T05:00:35;3.80;99.90
12634;DHT22;6382;48.614;8.880;2023-04-26T05:03:03;3.80;99.90
12634;DHT22;6382;48.614;8.880;2023-04-26T05:05:30;3.80;99.90
12634;DHT22;6382;48.614;8.880;2023-04-26T05:07:57;3.80;99.90
12634;DHT22;6382;48.614;8.880;2023-04-26T05:10:24;4.00;99.90
12634;DHT22;6382;48.614;8.880;2023-04-26T05:12:50;4.10;99.90
12634;DHT22;6382;48.614;8.880;2023-04-26T05:15:17;4.20;99.90
12634;DHT22;6382;48.614;8.880;2023-04-26T05:17:44;4.20;99.90
12634;DHT22;6382;48.614;8.880;2023-04-26T05:20:11;4.20;99.90
12634;DHT22;6382;48.614;8.880;2023-04-26T05:22:38;4.20;99.90
12634;DHT22;6382;48.614;8.880;2023-04-26T05:25:06;4.30;99.90
12634;DHT22;6382;48.614;8.880;2023-04-26T05:27:33;4.30;99.90
12634;DHT22;6382;48.614;8.880;2023-04-26T05:30:00;4.50;99.90
12634;DHT22;6382;48.614;8.880;2023-04-26T05:32:27;4.50;99.90
12634;DHT22;6382;48.614;8.880;2023-04-26T05:34:53;6.00;99.90
12634;DHT22;6382;48.614;8.880;2023-04-26T05:37:21;4.60;99.90
12634;DHT22;6382;48.614;8.880;2023-04-26T05:39:47;4.70;99.90
12634;DHT22;6382;48.614;8.880;2023-04-26T05:42:14;4.70;99.90
12634;DHT22;6382;48.614;8.880;2023-04-26T05:44:43;4.80;99.90
12634;DHT22;6382;48.614;8.880;2023-04-26T05:47:10;4.90;99.90
12634;DHT22;6382;48.614;8.880;2023-04-26T05:49:37;4.90;99.90
12634;DHT22;6382;48.614;8.880;2023-04-26T05:52:04;5.10;99.90
12634;DHT22;6382;48.614;8.880;2023-04-26T05:54:31;5.10;99.90
12634;DHT22;6382;48.614;8.880;2023-04-26T05:56:58;5.20;99.90
12634;DHT22;6382;48.614;8.880;2023-04-26T05:59:24;5.30;99.90
12634;DHT22;6382;48.614;8.880;2023-04-26T06:01:51;5.40;99.90
12634;DHT22;6382;48.614;8.880;2023-04-26T06:04:18;5.50;99.90
12634;DHT22;6382;48.614;8.880;2023-04-26T06:06:45;5.60;99.90
12634;DHT22;6382;48.614;8.880;2023-04-26T06:09:12;5.70;99.90
12634;DHT22;6382;48.614;8.880;2023-04-26T06:11:39;5.70;99.90
12634;DHT22;6382;48.614;8.880;2023-04-26T06:14:06;5.80;99.90
12634;DHT22;6382;48.614;8.880;2023-04-26T06:16:42;5.80;99.90
12634;DHT22;6382;48.614;8.880;2023-04-26T06:19:09;5.90;99.90
12634;DHT22;6382;48.614;8.880;2023-04-26T06:21:36;6.00;99.90
12634;DHT22;6382;48.614;8.880;2023-04-26T06:24:03;6.10;99.90
12634;DHT22;6382;48.614;8.880;2023-04-26T06:26:29;6.20;99.90
12634;DHT22;6382;48.614;8.880;2023-04-26T06:28:57;6.20;99.90
12634;DHT22;6382;48.614;8.880;2023-04-26T06:31:24;6.10;99.90
12634;DHT22;6382;48.614;8.880;2023-04-26T06:33:51;6.30;99.90
12634;DHT22;6382;48.614;8.880;2023-04-26T06:36:18;6.40;99.90
12634;DHT22;6382;48.614;8.880;2023-04-26T06:38:45;6.40;99.90
12634;DHT22;6382;48.614;8.880;2023-04-26T06:41:11;6.40;99.90
12634;DHT22;6382;48.614;8.880;2023-04-26T06:43:38;6.50;99.90
12634;DHT22;6382;48.614;8.880;2023-04-26T06:46:05;8.70;99.90
12634;DHT22;6382;48.614;8.880;2023-04-26T06:48:32;6.60;99.90
12634;DHT22;6382;48.614;8.880;2023-04-26T06:51:03;6.70;99.90
12634;DHT22;6382;48.614;8.880;2023-04-26T06:53:30;6.80;99.90
12634;DHT22;6382;48.614;8.880;2023-04-26T06:55:56;6.70;99.90
12634;DHT22;6382;48.614;8.880;2023-04-26T06:58:23;6.70;99.90
12634;DHT22;6382;48.614;8.880;2023-04-26T07:00:50;6.70;99.90
12634;DHT22;6382;48.614;8.880;2023-04-26T07:03:17;6.60;99.90
12634;DHT22;6382;48.614;8.880;2023-04-26T07:05:44;6.80;99.90
12634;DHT22;6382;48.614;8.880;2023-04-26T07:08:11;6.60;99.90
12634;DHT22;6382;48.614;8.880;2023-04-26T07:10:38;6.60;99.90
12634;DHT22;6382;48.614;8.880;2023-04-26T07:13:04;6.60;99.90
12634;DHT22;6382;48.614;8.880;2023-04-26T07:15:34;6.70;99.90
12634;DHT22;6382;48.614;8.880;2023-04-26T07:18:01;6.70;99.90
12634;DHT22;6382;48.614;8.880;2023-04-26T07:20:28;6.60;99.90
12634;DHT22;6382;48.614;8.880;2023-04-26T07:22:55;6.70;99.90
12634;DHT22;6382;48.614;8.880;2023-04-26T07:25:21;6.70;99.90
12634;DHT22;6382;48.614;8.880;2023-04-26T07:27:48;6.70;99.90
12634;DHT22;6382;48.614;8.880;2023-04-26T07:30:17;7.00;99.90
12634;DHT22;6382;48.614;8.880;2023-04-26T07:32:43;6.80;99.90
12634;DHT22;6382;48.614;8.880;2023-04-26T07:35:10;6.90;99.90
12634;DHT22;6382;48.614;8.880;2023-04-26T07:37:42;7.00;99.90
12634;DHT22;6382;48.614;8.880;2023-04-26T07:40:09;7.10;99.90
12634;DHT22;6382;48.614;8.880;2023-04-26T07:42:37;7.10;99.90
12634;DHT22;6382;48.614;8.880;2023-04-26T07:45:03;7.10;99.90
12634;DHT22;6382;48.614;8.880;2023-04-26T07:47:30;7.20;99.90
12634;DHT22;6382;48.614;8.880;2023-04-26T07:49:57;7.20;99.90
12634;DHT22;6382;48.614;8.880;2023-04-26T07:52:24;7.10;99.90
12634;DHT22;6382;48.614;8.880;2023-04-26T07:54:51;7.10;99.90
12634;DHT22;6382;48.614;8.880;2023-04-26T07:57:18;7.20;99.90
12634;DHT22;6382;48.614;8.880;2023-04-26T07:59:44;7.30;99.90
12634;DHT22;6382;48.614;8.880;2023-04-26T08:02:11;7.40;99.90
12634;DHT22;6382;48.614;8.880;2023-04-26T08:04:39;7.50;99.90
12634;DHT22;6382;48.614;8.880;2023-04-26T08:07:06;7.50;99.90
12634;DHT22;6382;48.614;8.880;2023-04-26T08:09:33;7.50;99.90
12634;DHT22;6382;48.614;8.880;2023-04-26T08:11:59;7.60;99.90
12634;DHT22;6382;48.614;8.880;2023-04-26T08:14:26;7.60;99.90
12634;DHT22;6382;48.614;8.880;2023-04-26T08:16:54;7.60;99.90
12634;DHT22;6382;48.614;8.880;2023-04-26T08:19:21;7.70;99.90
12634;DHT22;6382;48.614;8.880;2023-04-26T08:21:47;7.70;99.90
12634;DHT22;6382;48.614;8.880;2023-04-26T08:24:14;7.80;99.90
12634;DHT22;6382;48.614;8.880;2023-04-26T08:26:41;7.90;99.90
12634;DHT22;6382;48.614;8.880;2023-04-26T08:29:08;7.90;99.90
12634;DHT22;6382;48.614;8.880;2023-04-26T08:31:35;8.00;99.90
12634;DHT22;6382;48.614;8.880;2023-04-26T08:34:02;8.10;99.90
12634;DHT22;6382;48.614;8.880;2023-04-26T08:36:29;8.30;99.90
12634;DHT22;6382;48.614;8.880;2023-04-26T08:38:58;8.40;99.90
12634;DHT22;6382;48.614;8.880;2023-04-26T08:41:25;8.60;99.90
12634;DHT22;6382;48.614;8.880;2023-04-26T08:43:52;8.80;99.90
12634;DHT22;6382;48.614;8.880;2023-04-26T08:46:21;8.90;99.90
12634;DHT22;6382;48.614;8.880;2023-04-26T08:48:52;8.90;99.90
12634;DHT22;6382;48.614;8.880;2023-04-26T08:51:20;8.90;99.90
12634;DHT22;6382;48.614;8.880;2023-04-26T08:53:47;9.00;99.90
12634;DHT22;6382;48.614;8.880;2023-04-26T08:56:14;9.10;99.90
12634;DHT22;6382;48.614;8.880;2023-04-26T08:58:41;9.20;99.90
12634;DHT22;6382;48.614;8.880;2023-04-26T09:01:08;9.10;99.90
12634;DHT22;6382;48.614;8.880;2023-04-26T09:03:35;9.00;99.90
12634;DHT22;6382;48.614;8.880;2023-04-26T09:06:03;8.90;99.90
12634;DHT22;6382;48.614;8.880;2023-04-26T09:08:31;8.90;99.90
12634;DHT22;6382;48.614;8.880;2023-04-26T09:11:02;8.90;99.90
12634;DHT22;6382;48.614;8.880;2023-04-26T09:13:28;8.90;99.90
12634;DHT22;6382;48.614;8.880;2023-04-26T09:15:59;8.90;99.90
12634;DHT22;6382;48.614;8.880;2023-04-26T09:18:30;8.90;99.90
12634;DHT22;6382;48.614;8.880;2023-04-26T09:21:06;8.90;99.90
12634;DHT22;6382;48.614;8.880;2023-04-26T09:23:33;8.90;99.90
12634;DHT22;6382;48.614;8.880;2023-04-26T09:26:19;9.10;99.90
12634;DHT22;6382;48.614;8.880;2023-04-26T09:28:46;9.40;99.90
12634;DHT22;6382;48.614;8.880;2023-04-26T09:31:21;9.60;99.90
12634;DHT22;6382;48.614;8.880;2023-04-26T09:34:00;9.90;99.90
12634;DHT22;6382;48.614;8.880;2023-04-26T09:36:27;10.00;99.90
12634;DHT22;6382;48.614;8.880;2023-04-26T09:38:54;10.00;99.90
12634;DHT22;6382;48.614;8.880;2023-04-26T09:41:21;10.00;99.90
12634;DHT22;6382;48.614;8.880;2023-04-26T09:43:49;10.10;99.90
12634;DHT22;6382;48.614;8.880;2023-04-26T09:46:21;10.20;99.90
12634;DHT22;6382;48.614;8.880;2023-04-26T09:48:59;10.20;99.90
12634;DHT22;6382;48.614;8.880;2023-04-26T09:51:26;10.20;99.90
12634;DHT22;6382;48.614;8.880;2023-04-26T09:53:54;10.30;99.90
12634;DHT22;6382;48.614;8.880;2023-04-26T09:56:22;10.40;99.90
12634;DHT22;6382;48.614;8.880;2023-04-26T10:01:23;10.00;99.90
12634;DHT22;6382;48.614;8.880;2023-04-26T10:03:51;9.90;99.90
12634;DHT22;6382;48.614;8.880;2023-04-26T10:06:18;10.00;99.90
12634;DHT22;6382;48.614;8.880;2023-04-26T10:08:45;10.10;99.90
12634;DHT22;6382;48.614;8.880;2023-04-26T10:11:12;11.00;99.90
12634;DHT22;6382;48.614;8.880;2023-04-26T10:13:39;10.20;99.90
12634;DHT22;6382;48.614;8.880;2023-04-26T10:16:07;10.40;99.90
12634;DHT22;6382;48.614;8.880;2023-04-26T10:18:35;10.50;99.90
12634;DHT22;6382;48.614;8.880;2023-04-26T10:21:05;10.50;99.90
12634;DHT22;6382;48.614;8.880;2023-04-26T10:23:33;10.50;99.90
12634;DHT22;6382;48.614;8.880;2023-04-26T10:26:00;10.40;99.90
12634;DHT22;6382;48.614;8.880;2023-04-26T10:28:52;11.00;99.90
12634;DHT22;6382;48.614;8.880;2023-04-26T10:31:53;10.80;99.90
12634;DHT22;6382;48.614;8.880;2023-04-26T10:34:17;11.00;99.90
12634;DHT22;6382;48.614;8.880;2023-04-26T10:39:30;11.20;99.90
12634;DHT22;6382;48.614;8.880;2023-04-26T10:44:51;11.70;99.90
12634;DHT22;6382;48.614;8.880;2023-04-26T10:47:34;12.10;99.90
12634;DHT22;6382;48.614;8.880;2023-04-26T10:50:03;12.20;99.90
12634;DHT22;6382;48.614;8.880;2023-04-26T10:52:31;12.10;99.90
12634;DHT22;6382;48.614;8.880;2023-04-26T10:54:59;12.00;99.90
12634;DHT22;6382;48.614;8.880;2023-04-26T11:00:15;11.80;99.90
12634;DHT22;6382;48.614;8.880;2023-04-26T11:02:53;11.80;99.90
12634;DHT22;6382;48.614;8.880;2023-04-26T11:08:15;11.80;99.90
12634;DHT22;6382;48.614;8.880;2023-04-26T11:10:44;11.90;99.90
12634;DHT22;6382;48.614;8.880;2023-04-26T11:13:10;11.90;99.90
12634;DHT22;6382;48.614;8.880;2023-04-26T11:15:37;11.80;99.90
12634;DHT22;6382;48.614;8.880;2023-04-26T11:18:04;11.70;99.90
12634;DHT22;6382;48.614;8.880;2023-04-26T11:20:31;11.50;99.90
12634;DHT22;6382;48.614;8.880;2023-04-26T11:22:59;11.40;99.90
12634;DHT22;6382;48.614;8.880;2023-04-26T11:25:29;11.40;99.90
12634;DHT22;6382;48.614;8.880;2023-04-26T11:28:00;11.30;99.90
12634;DHT22;6382;48.614;8.880;2023-04-26T11:30:33;11.30;99.90
12634;DHT22;6382;48.614;8.880;2023-04-26T11:33:00;11.00;99.90
12634;DHT22;6382;48.614;8.880;2023-04-26T11:35:27;10.90;99.90
12634;DHT22;6382;48.614;8.880;2023-04-26T11:37:58;10.80;99.90
12634;DHT22;6382;48.614;8.880;2023-04-26T11:40:30;10.90;99.90
12634;DHT22;6382;48.614;8.880;2023-04-26T11:43:00;11.10;99.90
12634;DHT22;6382;48.614;8.880;2023-04-26T11:45:30;11.30;99.90
12634;DHT22;6382;48.614;8.880;2023-04-26T11:47:56;11.60;99.90
12634;DHT22;6382;48.614;8.880;2023-04-26T11:50:24;11.50;99.90
12634;DHT22;6382;48.614;8.880;2023-04-26T11:52:55;11.50;99.90
12634;DHT22;6382;48.614;8.880;2023-04-26T11:55:23;11.40;99.90
12634;DHT22;6382;48.614;8.880;2023-04-26T11:57:51;11.30;99.90
12634;DHT22;6382;48.614;8.880;2023-04-26T12:00:18;11.20;99.90
12634;DHT22;6382;48.614;8.880;2023-04-26T12:02:46;11.30;99.90
12634;DHT22;6382;48.614;8.880;2023-04-26T12:05:26;11.40;99.90
12634;DHT22;6382;48.614;8.880;2023-04-26T12:07:54;11.60;99.90
12634;DHT22;6382;48.614;8.880;2023-04-26T12:10:30;11.60;99.90
12634;DHT22;6382;48.614;8.880;2023-04-26T12:12:57;11.60;99.90
12634;DHT22;6382;48.614;8.880;2023-04-26T12:15:27;11.60;99.90
12634;DHT22;6382;48.614;8.880;2023-04-26T12:17:58;11.90;99.90
12634;DHT22;6382;48.614;8.880;2023-04-26T12:20:32;11.80;99.90
12634;DHT22;6382;48.614;8.880;2023-04-26T12:23:02;11.70;99.90
12634;DHT22;6382;48.614;8.880;2023-04-26T12:25:29;11.60;99.90
12634;DHT22;6382;48.614;8.880;2023-04-26T12:27:56;11.70;99.90
12634;DHT22;6382;48.614;8.880;2023-04-26T12:30:23;11.90;99.90
12634;DHT22;6382;48.614;8.880;2023-04-26T12:32:50;11.80;99.90
12634;DHT22;6382;48.614;8.880;2023-04-26T12:35:17;12.40;99.90
12634;DHT22;6382;48.614;8.880;2023-04-26T12:37:44;11.90;99.90
12634;DHT22;6382;48.614;8.880;2023-04-26T12:40:12;12.00;99.90
12634;DHT22;6382;48.614;8.880;2023-04-26T12:42:38;12.10;99.90
12634;DHT22;6382;48.614;8.880;2023-04-26T12:45:06;12.00;99.90
12634;DHT22;6382;48.614;8.880;2023-04-26T12:47:33;11.80;99.90
12634;DHT22;6382;48.614;8.880;2023-04-26T12:50:00;11.80;99.90
12634;DHT22;6382;48.614;8.880;2023-04-26T12:52:27;11.70;99.90
12634;DHT22;6382;48.614;8.880;2023-04-26T12:54:54;11.80;99.90
12634;DHT22;6382;48.614;8.880;2023-04-26T12:57:20;13.60;99.90
12634;DHT22;6382;48.614;8.880;2023-04-26T12:59:47;12.00;99.90
12634;DHT22;6382;48.614;8.880;2023-04-26T13:02:14;11.90;99.90
12634;DHT22;6382;48.614;8.880;2023-04-26T13:04:42;11.80;99.90
12634;DHT22;6382;48.614;8.880;2023-04-26T13:07:09;11.80;99.90
12634;DHT22;6382;48.614;8.880;2023-04-26T13:09:35;11.80;99.90
12634;DHT22;6382;48.614;8.880;2023-04-26T13:12:02;12.10;99.90
12634;DHT22;6382;48.614;8.880;2023-04-26T13:14:29;12.10;99.90
12634;DHT22;6382;48.614;8.880;2023-04-26T13:16:56;12.00;99.90
12634;DHT22;6382;48.614;8.880;2023-04-26T13:19:23;12.00;99.90
12634;DHT22;6382;48.614;8.880;2023-04-26T13:21:50;12.00;99.90
12634;DHT22;6382;48.614;8.880;2023-04-26T13:24:18;12.00;99.90
12634;DHT22;6382;48.614;8.880;2023-04-26T13:26:45;12.10;99.90
12634;DHT22;6382;48.614;8.880;2023-04-26T13:29:12;12.30;99.90
12634;DHT22;6382;48.614;8.880;2023-04-26T13:31:39;12.50;99.90
12634;DHT22;6382;48.614;8.880;2023-04-26T13:34:06;12.80;99.90
12634;DHT22;6382;48.614;8.880;2023-04-26T13:36:33;13.00;99.90
12634;DHT22;6382;48.614;8.880;2023-04-26T13:39:00;13.20;99.90
12634;DHT22;6382;48.614;8.880;2023-04-26T13:41:27;14.90;99.90
12634;DHT22;6382;48.614;8.880;2023-04-26T13:43:58;13.50;99.90
12634;DHT22;6382;48.614;8.880;2023-04-26T13:46:26;13.60;99.90
12634;DHT22;6382;48.614;8.880;2023-04-26T13:48:53;13.70;99.90
12634;DHT22;6382;48.614;8.880;2023-04-26T13:51:20;13.60;99.90
12634;DHT22;6382;48.614;8.880;2023-04-26T13:53:47;13.90;99.90
12634;DHT22;6382;48.614;8.880;2023-04-26T13:56:14;13.50;99.90
12634;DHT22;6382;48.614;8.880;2023-04-26T13:58:41;13.50;99.90
12634;DHT22;6382;48.614;8.880;2023-04-26T14:01:08;13.90;99.90
12634;DHT22;6382;48.614;8.880;2023-04-26T14:03:35;13.30;99.90
12634;DHT22;6382;48.614;8.880;2023-04-26T14:06:03;13.40;99.90
12634;DHT22;6382;48.614;8.880;2023-04-26T14:08:30;13.10;99.90
12634;DHT22;6382;48.614;8.880;2023-04-26T14:10:57;12.70;99.90
12634;DHT22;6382;48.614;8.880;2023-04-26T14:13:24;12.40;99.90
12634;DHT22;6382;48.614;8.880;2023-04-26T14:15:51;13.70;99.90
12634;DHT22;6382;48.614;8.880;2023-04-26T14:18:17;12.00;99.90
12634;DHT22;6382;48.614;8.880;2023-04-26T14:20:44;11.90;99.90
12634;DHT22;6382;48.614;8.880;2023-04-26T14:23:12;11.90;99.90
12634;DHT22;6382;48.614;8.880;2023-04-26T14:25:39;12.00;99.90
12634;DHT22;6382;48.614;8.880;2023-04-26T14:28:06;12.20;99.90
12634;DHT22;6382;48.614;8.880;2023-04-26T14:30:33;12.40;99.90
12634;DHT22;6382;48.614;8.880;2023-04-26T14:33:00;12.60;99.90
12634;DHT22;6382;48.614;8.880;2023-04-26T14:35:27;13.00;99.90
12634;DHT22;6382;48.614;8.880;2023-04-26T14:37:54;12.60;99.90
12634;DHT22;6382;48.614;8.880;2023-04-26T14:40:20;14.40;99.90
12634;DHT22;6382;48.614;8.880;2023-04-26T14:42:47;13.40;99.90
12634;DHT22;6382;48.614;8.880;2023-04-26T14:45:14;15.10;99.90
12634;DHT22;6382;48.614;8.880;2023-04-26T14:47:41;12.30;99.90
12634;DHT22;6382;48.614;8.880;2023-04-26T14:50:08;12.50;99.90
12634;DHT22;6382;48.614;8.880;2023-04-26T14:52:35;12.60;99.90
12634;DHT22;6382;48.614;8.880;2023-04-26T14:55:02;12.90;99.90
12634;DHT22;6382;48.614;8.880;2023-04-26T14:57:29;12.80;99.90
12634;DHT22;6382;48.614;8.880;2023-04-26T14:59:58;15.00;99.90
12634;DHT22;6382;48.614;8.880;2023-04-26T15:02:32;14.70;99.90
12634;DHT22;6382;48.614;8.880;2023-04-26T15:04:59;13.00;99.90
12634;DHT22;6382;48.614;8.880;2023-04-26T15:07:29;13.00;99.90
12634;DHT22;6382;48.614;8.880;2023-04-26T15:09:58;13.60;99.90
12634;DHT22;6382;48.614;8.880;2023-04-26T15:12:25;15.40;99.90
12634;DHT22;6382;48.614;8.880;2023-04-26T15:14:52;13.20;99.90
12634;DHT22;6382;48.614;8.880;2023-04-26T15:17:19;13.20;99.90
12634;DHT22;6382;48.614;8.880;2023-04-26T15:19:46;13.10;99.90
12634;DHT22;6382;48.614;8.880;2023-04-26T15:22:12;13.70;99.90
12634;DHT22;6382;48.614;8.880;2023-04-26T15:24:39;12.60;99.90
12634;DHT22;6382;48.614;8.880;2023-04-26T15:27:06;12.50;99.90
12634;DHT22;6382;48.614;8.880;2023-04-26T15:29:33;12.40;99.90
12634;DHT22;6382;48.614;8.880;2023-04-26T15:31:59;13.70;99.90
12634;DHT22;6382;48.614;8.880;2023-04-26T15:34:26;12.40;99.90
12634;DHT22;6382;48.614;8.880;2023-04-26T15:36:58;12.50;99.90
12634;DHT22;6382;48.614;8.880;2023-04-26T15:39:25;14.00;99.90
12634;DHT22;6382;48.614;8.880;2023-04-26T15:41:52;13.30;99.90
12634;DHT22;6382;48.614;8.880;2023-04-26T15:44:19;12.30;99.90
12634;DHT22;6382;48.614;8.880;2023-04-26T15:46:45;13.30;99.90
12634;DHT22;6382;48.614;8.880;2023-04-26T15:49:12;12.30;99.90
12634;DHT22;6382;48.614;8.880;2023-04-26T15:51:39;11.00;99.90
12634;DHT22;6382;48.614;8.880;2023-04-26T15:54:06;12.30;99.90
12634;DHT22;6382;48.614;8.880;2023-04-26T15:56:33;12.30;99.90
12634;DHT22;6382;48.614;8.880;2023-04-26T15:59:00;12.50;99.90
12634;DHT22;6382;48.614;8.880;2023-04-26T16:01:27;12.60;99.90
12634;DHT22;6382;48.614;8.880;2023-04-26T16:03:53;12.60;99.90
12634;DHT22;6382;48.614;8.880;2023-04-26T16:06:20;14.20;99.90
12634;DHT22;6382;48.614;8.880;2023-04-26T16:08:47;12.40;99.90
12634;DHT22;6382;48.614;8.880;2023-04-26T16:11:14;12.20;99.90